createdAt,value
2023-04-15T00:01:01.349Z,19.30
2023-04-15T00:03:28.610Z,19.30
2023-04-15T00:05:55.441Z,19.30
2023-04-15T00:08:22.138Z,19.20
2023-04-15T00:10:49.354Z,19.30
2023-04-15T00:13:16.531Z,19.20
2023-04-15T00:15:43.498Z,19.20
2023-04-15T00:18:10.362Z,19.20
2023-04-15T00:20:37.543Z,19.20
2023-04-15T00:23:04.458Z,19.20
2023-04-15T00:25:31.587Z,19.20
2023-04-15T00:27:58.299Z,19.20
2023-04-15T00:30:26.467Z,19.20
2023-04-15T00:32:53.507Z,19.20
2023-04-15T00:35:20.606Z,19.20
2023-04-15T00:37:47.214Z,19.20
2023-04-15T00:40:16.331Z,19.20
2023-04-15T00:42:43.350Z,19.20
2023-04-15T00:45:10.865Z,19.20
2023-04-15T00:47:39.198Z,19.20
2023-04-15T00:50:06.483Z,19.20
2023-04-15T00:52:33.228Z,19.20
2023-04-15T00:55:00.308Z,19.20
2023-04-15T00:57:28.689Z,19.20
2023-04-15T00:59:56.770Z,19.20
2023-04-15T01:02:24.168Z,19.20
2023-04-15T01:04:51.242Z,19.20
2023-04-15T01:07:17.859Z,19.20
2023-04-15T01:09:45.619Z,19.20
2023-04-15T01:12:16.996Z,19.10
2023-04-15T01:14:43.849Z,19.20
2023-04-15T01:17:10.440Z,19.10
2023-04-15T01:19:37.470Z,19.20
2023-04-15T01:22:05.528Z,19.10
2023-04-15T01:24:34.022Z,19.10
2023-04-15T01:27:00.660Z,19.10
2023-04-15T01:29:27.915Z,19.10
2023-04-15T01:31:56.253Z,19.10
2023-04-15T01:34:23.171Z,19.10
2023-04-15T01:36:49.857Z,19.10
2023-04-15T01:39:16.587Z,19.10
2023-04-15T01:41:43.259Z,19.10
2023-04-15T01:44:10.047Z,19.10
2023-04-15T01:46:36.924Z,19.10
2023-04-15T01:49:03.638Z,19.10
2023-04-15T01:51:30.213Z,19.10
2023-04-15T01:53:56.989Z,19.10
2023-04-15T01:56:26.778Z,19.10
2023-04-15T01:58:53.636Z,19.10
2023-04-15T02:01:20.581Z,19.10
2023-04-15T02:03:47.934Z,19.10
2023-04-15T02:06:15.069Z,19.10
2023-04-15T02:08:41.805Z,19.10
2023-04-15T02:11:08.486Z,19.10
2023-04-15T02:13:35.295Z,19.10
2023-04-15T02:16:02.111Z,19.10
2023-04-15T02:18:28.842Z,19.10
2023-04-15T02:20:57.235Z,19.10
2023-04-15T02:23:24.499Z,19.10
2023-04-15T02:25:53.465Z,19.10
2023-04-15T02:28:21.475Z,19.10
2023-04-15T02:30:52.680Z,19.10
2023-04-15T02:33:19.987Z,19.10
2023-04-15T02:35:47.221Z,19.10
2023-04-15T02:38:14.813Z,19.10
2023-04-15T02:40:41.560Z,19.00
2023-04-15T02:43:08.202Z,19.10
2023-04-15T02:45:35.085Z,19.10
2023-04-15T02:48:06.085Z,19.00
2023-04-15T02:50:33.183Z,19.00
2023-04-15T02:53:01.594Z,19.00
2023-04-15T02:55:28.901Z,19.00
2023-04-15T02:57:55.620Z,19.00
2023-04-15T03:00:22.506Z,19.00
2023-04-15T03:02:52.378Z,19.00
2023-04-15T03:05:19.161Z,19.00
2023-04-15T03:07:45.803Z,19.00
2023-04-15T03:10:12.755Z,19.00
2023-04-15T03:12:39.510Z,19.00
2023-04-15T03:15:06.888Z,19.00
2023-04-15T03:17:33.848Z,19.00
2023-04-15T03:20:03.957Z,19.00
2023-04-15T03:22:31.645Z,19.00
2023-04-15T03:24:58.442Z,19.00
2023-04-15T03:27:26.190Z,19.00
2023-04-15T03:29:52.815Z,19.00
2023-04-15T03:32:19.488Z,19.00
2023-04-15T03:34:46.186Z,19.00
2023-04-15T03:37:12.808Z,19.00
2023-04-15T03:39:39.398Z,19.00
2023-04-15T03:42:05.998Z,19.00
2023-04-15T03:44:32.870Z,19.00
2023-04-15T03:46:59.513Z,19.00
2023-04-15T03:49:26.136Z,19.00
2023-04-15T03:51:52.792Z,19.00
2023-04-15T03:54:19.355Z,19.00
2023-04-15T03:56:45.960Z,19.00
2023-04-15T03:59:12.521Z,19.00
2023-04-15T04:01:39.120Z,19.00
2023-04-15T04:04:05.819Z,19.00
2023-04-15T04:06:32.610Z,19.00
2023-04-15T04:08:59.505Z,19.00
2023-04-15T04:11:26.379Z,19.00
2023-04-15T04:13:52.953Z,19.00
2023-04-15T04:16:20.040Z,19.00
2023-04-15T04:18:46.781Z,19.00
2023-04-15T04:21:13.571Z,19.00
2023-04-15T04:23:40.203Z,19.00
2023-04-15T04:26:07.126Z,19.00
2023-04-15T04:28:35.094Z,19.00
2023-04-15T04:31:01.728Z,19.00
2023-04-15T04:33:28.418Z,19.00
2023-04-15T04:35:55.054Z,19.00
2023-04-15T04:38:21.694Z,19.00
2023-04-15T04:40:48.711Z,19.00
2023-04-15T04:43:16.053Z,19.00
2023-04-15T04:45:42.915Z,19.00
2023-04-15T04:48:12.820Z,19.00
2023-04-15T04:50:39.858Z,19.00
2023-04-15T04:53:06.507Z,19.00
2023-04-15T04:55:33.132Z,19.00
2023-04-15T04:57:59.702Z,19.00
2023-04-15T05:00:26.272Z,19.00
2023-04-15T05:02:53.078Z,19.00
2023-04-15T05:05:19.773Z,19.00
2023-04-15T05:07:47.243Z,19.00
2023-04-15T05:10:15.289Z,19.00
2023-04-15T05:12:42.147Z,19.00
2023-04-15T05:15:09.226Z,19.10
2023-04-15T05:17:35.967Z,19.10
2023-04-15T05:20:03.711Z,19.10
2023-04-15T05:22:30.430Z,19.10
2023-04-15T05:24:57.002Z,19.00
2023-04-15T05:27:24.029Z,19.10
2023-04-15T05:29:50.945Z,19.10
2023-04-15T05:32:17.587Z,19.10
2023-04-15T05:34:44.196Z,19.00
2023-04-15T05:37:10.832Z,19.00
2023-04-15T05:39:37.474Z,19.00
2023-04-15T05:42:05.790Z,18.90
2023-04-15T05:44:32.565Z,18.90
2023-04-15T05:46:59.257Z,18.90
2023-04-15T05:49:26.147Z,18.90
2023-04-15T05:51:52.845Z,18.90
2023-04-15T05:54:20.387Z,18.90
2023-04-15T05:56:47.169Z,18.90
2023-04-15T05:59:13.755Z,18.90
2023-04-15T06:01:40.442Z,18.90
2023-04-15T06:04:07.391Z,18.90
2023-04-15T06:06:34.670Z,18.90
2023-04-15T06:09:01.457Z,18.90
2023-04-15T06:11:28.271Z,18.90
2023-04-15T06:13:54.906Z,18.90
2023-04-15T06:16:21.846Z,18.90
2023-04-15T06:18:48.732Z,18.90
2023-04-15T06:21:15.926Z,18.90
2023-04-15T06:23:42.852Z,18.90
2023-04-15T06:26:09.445Z,18.90
2023-04-15T06:28:36.092Z,18.90
2023-04-15T06:31:03.081Z,18.90
2023-04-15T06:33:29.874Z,18.80
2023-04-15T06:35:56.501Z,18.90
2023-04-15T06:38:23.181Z,18.90
2023-04-15T06:40:49.910Z,18.90
2023-04-15T06:43:16.487Z,18.90
2023-04-15T06:45:43.106Z,18.90
2023-04-15T06:48:09.780Z,18.90
2023-04-15T06:50:36.450Z,18.90
2023-04-15T06:53:03.137Z,18.90
2023-04-15T06:55:29.889Z,18.90
2023-04-15T06:57:56.526Z,18.80
2023-04-15T07:00:23.262Z,18.80
2023-04-15T07:02:49.978Z,18.90
2023-04-15T07:05:16.880Z,18.80
2023-04-15T07:07:43.558Z,18.80
2023-04-15T07:10:11.864Z,18.90
2023-04-15T07:12:38.693Z,18.80
2023-04-15T07:15:06.628Z,18.80
2023-04-15T07:17:33.309Z,18.80
2023-04-15T07:20:00.064Z,18.80
2023-04-15T07:22:26.676Z,18.80
2023-04-15T07:24:53.319Z,18.90
2023-04-15T07:27:20.044Z,18.90
2023-04-15T07:29:46.681Z,18.90
2023-04-15T07:32:13.313Z,18.90
2023-04-15T07:34:40.067Z,18.90
2023-04-15T07:37:06.701Z,18.90
2023-04-15T07:39:33.342Z,18.90
2023-04-15T07:42:00.104Z,18.80
2023-04-15T07:44:27.616Z,18.90
2023-04-15T07:46:54.206Z,18.90
2023-04-15T07:49:21.506Z,18.90
2023-04-15T07:51:49.249Z,18.90
2023-04-15T07:54:16.297Z,18.90
2023-04-15T07:56:43.017Z,18.90
2023-04-15T07:59:10.016Z,18.90
2023-04-15T08:01:36.939Z,18.90
2023-04-15T08:04:03.999Z,18.90
2023-04-15T08:06:31.220Z,18.90
2023-04-15T08:08:58.046Z,18.90
2023-04-15T08:11:24.948Z,18.90
2023-04-15T08:13:52.371Z,18.90
2023-04-15T08:16:27.900Z,18.90
2023-04-15T08:18:56.617Z,18.90
2023-04-15T08:21:23.766Z,18.90
2023-04-15T08:23:52.055Z,18.90
2023-04-15T08:26:20.216Z,18.90
2023-04-15T08:28:47.043Z,18.90
2023-04-15T08:31:15.550Z,18.90
2023-04-15T08:33:42.563Z,18.90
2023-04-15T08:36:09.285Z,18.90
2023-04-15T08:38:36.369Z,18.90
2023-04-15T08:41:07.343Z,18.90
2023-04-15T08:43:37.670Z,18.90
2023-04-15T08:46:05.284Z,18.90
2023-04-15T08:48:34.921Z,18.90
2023-04-15T08:51:02.268Z,18.90
2023-04-15T08:53:30.699Z,18.90
2023-04-15T08:55:59.812Z,18.90
2023-04-15T08:58:26.500Z,18.90
2023-04-15T09:00:53.655Z,18.90
2023-04-15T09:03:21.841Z,18.90
2023-04-15T09:05:50.074Z,18.90
2023-04-15T09:08:18.043Z,19.00
2023-04-15T09:10:45.102Z,19.00
2023-04-15T09:13:12.109Z,19.00
2023-04-15T09:15:38.965Z,19.00
2023-04-15T09:18:06.323Z,19.00
2023-04-15T09:20:42.968Z,19.10
2023-04-15T09:23:14.169Z,19.10
2023-04-15T09:25:44.915Z,19.10
2023-04-15T09:28:12.157Z,19.10
2023-04-15T09:30:38.984Z,19.10
2023-04-15T09:33:08.451Z,19.10
2023-04-15T09:35:38.183Z,19.20
2023-04-15T09:38:10.197Z,19.20
2023-04-15T09:40:41.142Z,19.20
2023-04-15T09:43:09.779Z,19.20
2023-04-15T09:45:37.184Z,19.20
2023-04-15T09:48:36.369Z,19.20
2023-04-15T09:51:03.178Z,19.20
2023-04-15T09:53:31.766Z,19.30
2023-04-15T09:56:03.378Z,19.20
2023-04-15T09:58:31.975Z,19.20
2023-04-15T10:01:01.602Z,19.30
2023-04-15T10:03:31.594Z,19.30
2023-04-15T10:06:00.695Z,19.30
2023-04-15T10:08:29.267Z,19.30
2023-04-15T10:10:56.187Z,19.30
2023-04-15T10:13:25.459Z,19.20
2023-04-15T10:15:56.572Z,19.30
2023-04-15T10:18:26.616Z,19.30
2023-04-15T10:20:54.124Z,19.30
2023-04-15T10:23:22.741Z,19.30
2023-04-15T10:25:51.685Z,19.30
2023-04-15T10:28:19.431Z,19.30
2023-04-15T10:30:47.903Z,19.30
2023-04-15T10:33:16.220Z,19.30
2023-04-15T10:35:43.409Z,19.30
2023-04-15T10:38:37.407Z,19.30
2023-04-15T10:41:21.464Z,19.30
2023-04-15T10:44:02.704Z,19.30
2023-04-15T10:46:41.257Z,19.30
2023-04-15T10:49:16.864Z,19.30
2023-04-15T10:51:45.849Z,19.30
2023-04-15T10:54:25.890Z,19.30
2023-04-15T10:57:02.502Z,19.30
2023-04-15T10:59:58.228Z,19.30
2023-04-15T11:02:43.570Z,19.30
2023-04-15T11:05:12.031Z,19.30
2023-04-15T11:07:41.944Z,19.30
2023-04-15T11:10:17.440Z,19.30
2023-04-15T11:12:45.425Z,19.30
2023-04-15T11:15:42.598Z,19.30
2023-04-15T11:18:19.306Z,19.30
2023-04-15T11:21:06.621Z,19.30
2023-04-15T11:23:38.291Z,19.30
2023-04-15T11:26:09.191Z,19.30
2023-04-15T11:28:38.275Z,19.30
2023-04-15T11:31:17.568Z,19.30
2023-04-15T11:33:47.337Z,19.30
2023-04-15T11:36:14.308Z,19.30
2023-04-15T11:38:44.827Z,19.30
2023-04-15T11:41:11.924Z,19.30
2023-04-15T11:43:38.701Z,19.30
2023-04-15T11:46:05.505Z,19.30
2023-04-15T11:48:34.847Z,19.30
2023-04-15T11:51:06.657Z,19.30
2023-04-15T11:53:47.169Z,19.30
2023-04-15T11:56:18.979Z,19.30
2023-04-15T11:58:46.553Z,19.30
2023-04-15T12:01:13.940Z,19.30
2023-04-15T12:03:43.940Z,19.30
2023-04-15T12:06:19.530Z,19.30
2023-04-15T12:09:03.066Z,19.30
2023-04-15T12:11:32.845Z,19.30
2023-04-15T12:14:07.309Z,19.30
2023-04-15T12:16:44.552Z,19.30
2023-04-15T12:19:23.428Z,19.20
2023-04-15T12:21:50.449Z,19.30
2023-04-15T12:24:22.381Z,19.30
2023-04-15T12:26:57.846Z,19.30
2023-04-15T12:29:28.203Z,19.30
2023-04-15T12:31:57.232Z,19.30
2023-04-15T12:34:32.112Z,19.20
2023-04-15T12:37:00.633Z,19.20
2023-04-15T12:39:30.764Z,19.20
2023-04-15T12:41:57.766Z,19.20
2023-04-15T12:44:24.688Z,19.20
2023-04-15T12:46:52.950Z,19.20
2023-04-15T12:49:21.383Z,19.20
2023-04-15T12:51:53.156Z,19.20
2023-04-15T12:54:20.129Z,19.20
2023-04-15T12:56:47.742Z,19.20
2023-04-15T12:59:15.023Z,19.20
2023-04-15T13:01:41.873Z,19.20
2023-04-15T13:04:09.304Z,19.20
2023-04-15T13:06:36.846Z,19.20
2023-04-15T13:09:05.278Z,19.10
2023-04-15T13:11:33.732Z,19.20
2023-04-15T13:14:02.169Z,19.10
2023-04-15T13:16:29.114Z,19.10
2023-04-15T13:18:55.878Z,19.10
2023-04-15T13:21:22.577Z,19.20
2023-04-15T13:23:52.666Z,19.10
2023-04-15T13:26:19.705Z,19.10
2023-04-15T13:28:46.388Z,19.10
2023-04-15T13:31:13.274Z,19.10
2023-04-15T13:33:40.128Z,19.10
2023-04-15T13:36:07.252Z,19.00
2023-04-15T13:38:33.925Z,18.40
2023-04-15T13:41:00.574Z,18.60
2023-04-15T13:43:27.510Z,18.80
2023-04-15T13:45:54.136Z,18.90
2023-04-15T13:48:20.798Z,19.00
2023-04-15T13:50:47.424Z,19.00
2023-04-15T13:53:14.081Z,19.00
2023-04-15T13:55:42.485Z,19.10
2023-04-15T13:58:09.654Z,19.10
2023-04-15T14:00:36.346Z,19.10
2023-04-15T14:03:03.204Z,19.10
2023-04-15T14:05:30.342Z,19.10
2023-04-15T14:07:56.983Z,19.00
2023-04-15T14:10:23.686Z,19.10
2023-04-15T14:12:50.619Z,19.10
2023-04-15T14:15:17.291Z,19.20
2023-04-15T14:17:43.968Z,19.20
2023-04-15T14:20:10.993Z,19.30
2023-04-15T14:22:37.747Z,19.30
2023-04-15T14:25:05.067Z,19.30
2023-04-15T14:27:31.763Z,19.20
2023-04-15T14:29:58.908Z,19.20
2023-04-15T14:32:26.741Z,19.20
2023-04-15T14:34:53.407Z,19.20
2023-04-15T14:37:20.089Z,19.20
2023-04-15T14:39:46.745Z,19.20
2023-04-15T14:42:13.366Z,19.20
2023-04-15T14:44:39.979Z,19.30
2023-04-15T14:47:06.958Z,19.30
2023-04-15T14:49:33.663Z,19.30
2023-04-15T14:52:00.325Z,19.30
2023-04-15T14:54:26.963Z,19.30
2023-04-15T14:56:53.549Z,19.20
2023-04-15T14:59:20.130Z,19.30
2023-04-15T15:01:47.017Z,19.30
2023-04-15T15:04:13.840Z,19.30
2023-04-15T15:06:41.517Z,19.40
2023-04-15T15:09:08.462Z,19.40
2023-04-15T15:11:35.208Z,19.40
2023-04-15T15:14:01.892Z,19.40
2023-04-15T15:16:29.261Z,19.40
2023-04-15T15:18:56.103Z,19.40
2023-04-15T15:21:23.013Z,19.50
2023-04-15T15:23:50.056Z,19.50
2023-04-15T15:26:16.984Z,19.60
2023-04-15T15:28:45.446Z,19.50
2023-04-15T15:31:12.096Z,19.50
2023-04-15T15:33:38.791Z,19.50
2023-04-15T15:36:05.912Z,19.50
2023-04-15T15:38:32.518Z,19.50
2023-04-15T15:40:59.286Z,19.50
2023-04-15T15:43:26.081Z,19.60
2023-04-15T15:45:55.377Z,19.60
2023-04-15T15:48:23.686Z,19.60
2023-04-15T15:50:51.632Z,19.60
2023-04-15T15:53:20.752Z,19.60
2023-04-15T15:55:52.633Z,19.70
2023-04-15T15:58:20.673Z,19.60
2023-04-15T16:00:47.631Z,19.60
2023-04-15T16:03:15.056Z,19.60
2023-04-15T16:05:41.906Z,19.60
2023-04-15T16:08:08.649Z,19.60
2023-04-15T16:10:35.409Z,19.60
2023-04-15T16:13:02.919Z,19.60
2023-04-15T16:15:29.741Z,19.70
2023-04-15T16:17:56.528Z,19.70
2023-04-15T16:20:23.522Z,19.70
2023-04-15T16:22:50.290Z,19.70
2023-04-15T16:25:17.564Z,19.70
2023-04-15T16:27:57.648Z,19.70
2023-04-15T16:30:28.871Z,19.70
2023-04-15T16:32:56.465Z,19.70
2023-04-15T16:35:23.155Z,19.70
2023-04-15T16:37:49.744Z,19.70
2023-04-15T16:40:16.389Z,19.70
2023-04-15T16:42:43.658Z,19.80
2023-04-15T16:45:10.757Z,19.70
2023-04-15T16:47:37.416Z,19.80
2023-04-15T16:50:04.329Z,19.80
2023-04-15T16:52:30.975Z,19.80
2023-04-15T16:54:57.626Z,19.80
2023-04-15T16:57:24.688Z,19.80
2023-04-15T16:59:58.351Z,19.10
2023-04-15T17:02:25.079Z,19.00
2023-04-15T17:04:52.084Z,19.40
2023-04-15T17:07:18.694Z,19.50
2023-04-15T17:09:45.371Z,19.60
2023-04-15T17:12:12.016Z,19.70
2023-04-15T17:14:38.908Z,19.70
2023-04-15T17:17:06.515Z,19.70
2023-04-15T17:19:33.571Z,19.70
2023-04-15T17:22:01.058Z,19.80
2023-04-15T17:24:27.746Z,19.80
2023-04-15T17:26:54.446Z,19.80
2023-04-15T17:29:21.129Z,19.80
2023-04-15T17:31:47.799Z,19.90
2023-04-15T17:34:15.935Z,19.90
2023-04-15T17:36:42.842Z,19.90
2023-04-15T17:39:09.600Z,19.90
2023-04-15T17:41:36.225Z,19.90
2023-04-15T17:46:29.811Z,20.10
2023-04-15T17:48:56.474Z,20.10
2023-04-15T17:51:23.102Z,20.00
2023-04-15T17:53:49.821Z,19.10
2023-04-15T17:56:16.465Z,19.10
2023-04-15T17:58:43.527Z,19.40
2023-04-15T18:01:10.358Z,19.60
2023-04-15T18:03:37.122Z,19.70
2023-04-15T18:06:03.988Z,19.70
2023-04-15T18:08:31.542Z,19.80
2023-04-15T18:10:58.198Z,19.80
2023-04-15T18:13:24.871Z,19.90
2023-04-15T18:15:51.703Z,19.90
2023-04-15T18:18:18.428Z,19.90
2023-04-15T18:20:45.315Z,19.90
2023-04-15T18:23:11.970Z,20.00
2023-04-15T18:25:38.661Z,20.00
2023-04-15T18:28:05.763Z,20.00
2023-04-15T18:30:32.403Z,20.00
2023-04-15T18:32:59.190Z,20.10
2023-04-15T18:35:25.892Z,20.00
2023-04-15T18:37:52.993Z,20.10
2023-04-15T18:40:19.818Z,20.10
2023-04-15T18:42:46.608Z,20.10
2023-04-15T18:45:13.348Z,20.10
2023-04-15T18:47:40.164Z,20.20
2023-04-15T18:50:08.094Z,20.20
2023-04-15T18:52:34.905Z,20.20
2023-04-15T18:55:03.245Z,20.10
2023-04-15T18:57:35.239Z,20.10
2023-04-15T19:00:04.978Z,20.10
2023-04-15T19:02:31.698Z,20.10
2023-04-15T19:04:58.405Z,20.20
2023-04-15T19:07:25.119Z,20.20
2023-04-15T19:09:52.693Z,20.20
2023-04-15T19:12:19.368Z,20.20
2023-04-15T19:14:46.048Z,20.20
2023-04-15T19:17:12.683Z,20.20
2023-04-15T19:19:39.323Z,20.20
2023-04-15T19:22:06.568Z,20.20
2023-04-15T19:24:33.352Z,20.20
2023-04-15T19:27:00.152Z,20.20
2023-04-15T19:29:28.543Z,20.20
2023-04-15T19:31:55.941Z,20.30
2023-04-15T19:34:22.921Z,20.30
2023-04-15T19:36:49.593Z,20.20
2023-04-15T19:39:16.555Z,20.30
2023-04-15T19:41:44.178Z,20.30
2023-04-15T19:44:12.958Z,20.30
2023-04-15T19:46:40.810Z,20.40
2023-04-15T19:49:07.733Z,20.30
2023-04-15T19:51:34.486Z,20.30
2023-04-15T19:54:01.183Z,20.30
2023-04-15T19:56:27.974Z,20.40
2023-04-15T19:58:55.033Z,20.30
2023-04-15T20:01:22.658Z,20.30
2023-04-15T20:03:49.692Z,20.30
2023-04-15T20:06:16.482Z,20.30
2023-04-15T20:08:43.258Z,20.40
2023-04-15T20:11:10.646Z,20.30
2023-04-15T20:13:37.382Z,20.40
2023-04-15T20:16:05.974Z,20.40
2023-04-15T20:18:32.818Z,20.40
2023-04-15T20:20:59.586Z,20.40
2023-04-15T20:23:26.372Z,20.50
2023-04-15T20:25:53.078Z,20.40
2023-04-15T20:28:19.814Z,20.40
2023-04-15T20:30:47.178Z,20.50
2023-04-15T20:33:14.343Z,20.50
2023-04-15T20:35:41.123Z,20.50
2023-04-15T20:38:08.377Z,20.50
2023-04-15T20:40:34.975Z,20.50
2023-04-15T20:43:01.612Z,20.50
2023-04-15T20:45:28.258Z,20.40
2023-04-15T20:47:56.025Z,20.40
2023-04-15T20:50:22.768Z,20.50
2023-04-15T20:52:49.450Z,20.40
2023-04-15T20:55:16.183Z,20.40
2023-04-15T20:57:42.931Z,20.50
2023-04-15T21:00:10.845Z,20.40
2023-04-15T21:02:38.043Z,20.40
2023-04-15T21:05:05.424Z,20.40
2023-04-15T21:07:32.017Z,20.40
2023-04-15T21:09:58.593Z,20.40
2023-04-15T21:12:25.426Z,20.40
2023-04-15T21:14:52.358Z,20.40
2023-04-15T21:17:19.195Z,20.50
2023-04-15T21:19:45.898Z,20.50
2023-04-15T21:22:13.585Z,20.40
2023-04-15T21:24:40.209Z,20.50
2023-04-15T21:27:06.837Z,20.50
2023-04-15T21:29:33.520Z,20.40
2023-04-15T21:32:00.272Z,20.40
2023-04-15T21:34:26.916Z,20.50
2023-04-15T21:36:53.525Z,20.40
2023-04-15T21:39:20.774Z,20.40
2023-04-15T21:41:47.428Z,20.40
2023-04-15T21:44:15.145Z,20.50
2023-04-15T21:46:42.273Z,20.40
2023-04-15T21:49:13.898Z,20.40
2023-04-15T21:51:40.552Z,20.50
2023-04-15T21:54:07.250Z,20.40
2023-04-15T21:56:33.956Z,20.40
2023-04-15T21:59:00.597Z,20.50
2023-04-15T22:01:27.417Z,20.40
2023-04-15T22:03:54.323Z,20.40
2023-04-15T22:06:21.416Z,20.40
2023-04-15T22:08:57.062Z,20.50
2023-04-15T22:11:28.376Z,20.50
2023-04-15T22:13:58.742Z,20.50
2023-04-15T22:16:26.254Z,20.50
2023-04-15T22:18:53.481Z,20.50
2023-04-15T22:21:20.157Z,20.50
2023-04-15T22:23:47.653Z,20.50
2023-04-15T22:26:14.374Z,20.50
2023-04-15T22:28:41.056Z,20.50
2023-04-15T22:31:07.757Z,20.50
2023-04-15T22:33:34.444Z,20.40
2023-04-15T22:36:01.125Z,20.40
2023-04-15T22:38:27.804Z,20.50
2023-04-15T22:40:54.482Z,20.40
2023-04-15T22:43:22.225Z,20.40
2023-04-15T22:45:52.897Z,20.50
2023-04-15T22:48:19.644Z,20.40
2023-04-15T22:50:46.526Z,20.40
2023-04-15T22:53:14.779Z,20.40
2023-04-15T22:55:45.673Z,20.40
2023-04-15T22:58:12.495Z,20.40
2023-04-15T23:00:39.247Z,20.40
2023-04-15T23:03:06.194Z,20.40
2023-04-15T23:05:34.102Z,20.50
2023-04-15T23:08:00.963Z,20.40
2023-04-15T23:10:27.832Z,20.50
2023-04-15T23:12:54.468Z,20.40
2023-04-15T23:15:21.326Z,20.40
2023-04-15T23:17:47.997Z,20.50
2023-04-15T23:20:16.216Z,20.40
2023-04-15T23:22:43.230Z,20.40
2023-04-15T23:25:10.154Z,20.40
2023-04-15T23:27:36.912Z,20.40
2023-04-15T23:30:04.023Z,20.40
2023-04-15T23:32:30.891Z,20.40
2023-04-15T23:34:57.590Z,20.40
2023-04-15T23:37:24.266Z,20.40
2023-04-15T23:39:50.924Z,20.40
2023-04-15T23:42:17.551Z,20.40
2023-04-15T23:44:44.836Z,20.40
2023-04-15T23:47:11.499Z,20.40
2023-04-15T23:49:40.683Z,20.40
2023-04-15T23:52:07.670Z,20.40
2023-04-15T23:54:34.323Z,20.40
2023-04-15T23:57:00.927Z,20.40
2023-04-15T23:59:27.574Z,20.40
